Forside
METAR-TAF:

METAR-TAF

Lufthavne :

Newquay Cornwall, England

Breddekreds: 50-26N, længdekreds: 005-00W, højde: 119 m

Aktuelle vejr

Denne rapport blev lavet for 42 minutter siden, kl. 12:20 UTC
Vind 11 kt fra øst, varierende mellem nordøst og østsydøst
Temperatur 9°C
Fugtighed 53%
Tryk 1031 hPa
Sigt 10 km eller mere
Nogle få skyer i en højde af 3700 ft

METAR: EGHQ 311220Z 08011KT 040V110 9999 FEW037 09/00 Q1031

Tid: 14:02 (13:02 UTC)

Vejrudsigter

Denne rapport blev lavet for 1 time og 55 minutter siden, kl. 11:07 UTC
Foreløbig gælder fra 31 på 12 UTC til 31 på 21 UTC
Vind 15 kt fra østnordøst
Sigt 10 km eller mere
Nogle få skyer i en højde af 3000 ft
Midlertidig
fra 31 på 12 UTC til 31 på 15 UTC
Vind 18 kt fra østnordøst med vindstød på up til 28 kt

TAF: EGHQ 311107Z 3112/3121 06015KT 9999 FEW030 TEMPO 3112/3115 06018G28KT

Vejrobservationer og prognoser fra mere end 4000 lufthavne (METAR og TAF).

De gule og røde prikker repræsenterer de meteorologiske stationer.

Flyt musen over at se navnet på stationen.

Så klik over at se vejr observationer og prognoser.

At skifte det kort: Klik på de grønne knapper med et sort kors for at zoome ind; på den grønne knap med en bindestreg for at zoome ud; eller på de grønne pile for tilstødende kort.


METAR-TAF: